sensor_id;sensor_type;location;lat;lon;timestamp;temperature;humidity
1225;DHT22;602;48.000;7.840;2023-12-28T00:01:49;11.90;99.90
1225;DHT22;602;48.000;7.840;2023-12-28T00:04:17;11.80;99.90
1225;DHT22;602;48.000;7.840;2023-12-28T00:06:43;11.90;99.90
1225;DHT22;602;48.000;7.840;2023-12-28T00:09:10;11.80;99.90
1225;DHT22;602;48.000;7.840;2023-12-28T00:11:37;11.90;99.90
1225;DHT22;602;48.000;7.840;2023-12-28T00:14:04;11.90;99.90
1225;DHT22;602;48.000;7.840;2023-12-28T00:16:33;12.00;99.90
1225;DHT22;602;48.000;7.840;2023-12-28T00:19:02;12.10;99.90
1225;DHT22;602;48.000;7.840;2023-12-28T00:21:29;12.20;99.90
1225;DHT22;602;48.000;7.840;2023-12-28T00:23:56;12.30;99.90
1225;DHT22;602;48.000;7.840;2023-12-28T00:26:23;12.30;99.90
1225;DHT22;602;48.000;7.840;2023-12-28T00:28:50;12.40;99.90
1225;DHT22;602;48.000;7.840;2023-12-28T00:31:17;12.40;99.90
1225;DHT22;602;48.000;7.840;2023-12-28T00:33:45;12.50;99.90
1225;DHT22;602;48.000;7.840;2023-12-28T00:36:12;12.60;99.80
1225;DHT22;602;48.000;7.840;2023-12-28T00:38:39;12.70;99.90
1225;DHT22;602;48.000;7.840;2023-12-28T00:41:06;12.70;99.70
1225;DHT22;602;48.000;7.840;2023-12-28T00:43:33;12.70;99.40
1225;DHT22;602;48.000;7.840;2023-12-28T00:46:01;12.70;99.50
1225;DHT22;602;48.000;7.840;2023-12-28T00:48:28;12.70;99.50
1225;DHT22;602;48.000;7.840;2023-12-28T00:50:57;12.80;98.80
1225;DHT22;602;48.000;7.840;2023-12-28T00:53:25;12.80;98.60
1225;DHT22;602;48.000;7.840;2023-12-28T00:55:52;12.90;98.40
1225;DHT22;602;48.000;7.840;2023-12-28T00:58:19;12.90;98.00
1225;DHT22;602;48.000;7.840;2023-12-28T01:00:46;12.90;98.20
1225;DHT22;602;48.000;7.840;2023-12-28T01:03:13;12.90;98.40
1225;DHT22;602;48.000;7.840;2023-12-28T01:05:40;12.90;98.50
1225;DHT22;602;48.000;7.840;2023-12-28T01:08:09;12.90;98.50
1225;DHT22;602;48.000;7.840;2023-12-28T01:10:36;12.90;98.40
1225;DHT22;602;48.000;7.840;2023-12-28T01:13:03;12.90;98.20
1225;DHT22;602;48.000;7.840;2023-12-28T01:15:30;12.90;97.90
1225;DHT22;602;48.000;7.840;2023-12-28T01:17:57;12.90;98.00
1225;DHT22;602;48.000;7.840;2023-12-28T01:20:24;12.90;97.90
1225;DHT22;602;48.000;7.840;2023-12-28T01:22:51;12.90;97.70
1225;DHT22;602;48.000;7.840;2023-12-28T01:25:20;12.90;97.80
1225;DHT22;602;48.000;7.840;2023-12-28T01:27:49;13.00;97.60
1225;DHT22;602;48.000;7.840;2023-12-28T01:30:16;13.00;97.30
1225;DHT22;602;48.000;7.840;2023-12-28T01:32:43;13.00;97.20
1225;DHT22;602;48.000;7.840;2023-12-28T01:35:10;13.10;97.10
1225;DHT22;602;48.000;7.840;2023-12-28T01:37:37;13.10;97.00
1225;DHT22;602;48.000;7.840;2023-12-28T01:40:05;13.10;96.90
1225;DHT22;602;48.000;7.840;2023-12-28T01:42:34;13.10;96.50
1225;DHT22;602;48.000;7.840;2023-12-28T01:45:01;13.10;96.50
1225;DHT22;602;48.000;7.840;2023-12-28T01:47:29;13.20;96.70
1225;DHT22;602;48.000;7.840;2023-12-28T01:49:56;13.20;96.40
1225;DHT22;602;48.000;7.840;2023-12-28T01:52:24;13.20;96.30
1225;DHT22;602;48.000;7.840;2023-12-28T01:54:51;13.10;96.10
1225;DHT22;602;48.000;7.840;2023-12-28T01:57:18;13.10;96.40
1225;DHT22;602;48.000;7.840;2023-12-28T01:59:46;13.10;96.50
1225;DHT22;602;48.000;7.840;2023-12-28T02:02:13;13.10;96.20
1225;DHT22;602;48.000;7.840;2023-12-28T02:04:41;13.10;95.80
1225;DHT22;602;48.000;7.840;2023-12-28T02:07:08;13.10;95.70
1225;DHT22;602;48.000;7.840;2023-12-28T02:09:35;13.10;96.00
1225;DHT22;602;48.000;7.840;2023-12-28T02:12:03;13.10;95.70
1225;DHT22;602;48.000;7.840;2023-12-28T02:14:30;13.10;95.50
1225;DHT22;602;48.000;7.840;2023-12-28T02:17:04;13.10;95.50
1225;DHT22;602;48.000;7.840;2023-12-28T02:19:40;13.10;95.60
1225;DHT22;602;48.000;7.840;2023-12-28T02:22:10;13.10;95.70
1225;DHT22;602;48.000;7.840;2023-12-28T02:25:02;13.00;95.50
1225;DHT22;602;48.000;7.840;2023-12-28T02:27:29;13.10;95.30
1225;DHT22;602;48.000;7.840;2023-12-28T02:29:57;13.10;95.40
1225;DHT22;602;48.000;7.840;2023-12-28T02:32:33;13.00;95.10
1225;DHT22;602;48.000;7.840;2023-12-28T02:35:09;13.10;95.40
1225;DHT22;602;48.000;7.840;2023-12-28T02:37:42;13.10;95.30
1225;DHT22;602;48.000;7.840;2023-12-28T02:40:11;13.10;95.40
1225;DHT22;602;48.000;7.840;2023-12-28T02:42:40;13.00;95.10
1225;DHT22;602;48.000;7.840;2023-12-28T02:45:07;13.00;95.30
1225;DHT22;602;48.000;7.840;2023-12-28T02:47:35;13.10;95.60
1225;DHT22;602;48.000;7.840;2023-12-28T02:50:02;13.10;95.20
1225;DHT22;602;48.000;7.840;2023-12-28T02:52:29;13.10;95.20
1225;DHT22;602;48.000;7.840;2023-12-28T02:54:56;13.10;95.40
1225;DHT22;602;48.000;7.840;2023-12-28T02:57:24;13.10;95.40
1225;DHT22;602;48.000;7.840;2023-12-28T02:59:51;13.10;95.60
1225;DHT22;602;48.000;7.840;2023-12-28T03:02:18;13.10;95.60
1225;DHT22;602;48.000;7.840;2023-12-28T03:04:45;13.10;95.30
1225;DHT22;602;48.000;7.840;2023-12-28T03:07:12;13.10;95.60
1225;DHT22;602;48.000;7.840;2023-12-28T03:09:39;13.00;95.60
1225;DHT22;602;48.000;7.840;2023-12-28T03:12:06;13.00;95.90
1225;DHT22;602;48.000;7.840;2023-12-28T03:14:35;13.00;95.90
1225;DHT22;602;48.000;7.840;2023-12-28T03:17:01;12.90;95.70
1225;DHT22;602;48.000;7.840;2023-12-28T03:19:28;13.00;96.00
1225;DHT22;602;48.000;7.840;2023-12-28T03:21:55;13.00;95.90
1225;DHT22;602;48.000;7.840;2023-12-28T03:24:22;13.00;95.90
1225;DHT22;602;48.000;7.840;2023-12-28T03:26:49;13.00;95.90
1225;DHT22;602;48.000;7.840;2023-12-28T03:29:16;12.90;95.90
1225;DHT22;602;48.000;7.840;2023-12-28T03:31:44;12.90;96.00
1225;DHT22;602;48.000;7.840;2023-12-28T03:34:11;12.90;95.90
1225;DHT22;602;48.000;7.840;2023-12-28T03:36:38;12.90;95.90
1225;DHT22;602;48.000;7.840;2023-12-28T03:39:05;12.90;95.90
1225;DHT22;602;48.000;7.840;2023-12-28T03:41:32;13.00;96.00
1225;DHT22;602;48.000;7.840;2023-12-28T03:43:59;13.00;95.90
1225;DHT22;602;48.000;7.840;2023-12-28T03:46:26;13.10;95.80
1225;DHT22;602;48.000;7.840;2023-12-28T03:48:54;13.10;95.70
1225;DHT22;602;48.000;7.840;2023-12-28T03:51:21;13.10;95.70
1225;DHT22;602;48.000;7.840;2023-12-28T03:53:49;13.10;95.70
1225;DHT22;602;48.000;7.840;2023-12-28T03:56:23;13.00;95.90
1225;DHT22;602;48.000;7.840;2023-12-28T03:58:51;13.10;96.00
1225;DHT22;602;48.000;7.840;2023-12-28T04:01:18;13.10;95.90
1225;DHT22;602;48.000;7.840;2023-12-28T04:03:46;13.10;96.00
1225;DHT22;602;48.000;7.840;2023-12-28T04:06:15;13.20;95.90
1225;DHT22;602;48.000;7.840;2023-12-28T04:08:42;13.30;95.90
1225;DHT22;602;48.000;7.840;2023-12-28T04:11:09;13.30;95.80
1225;DHT22;602;48.000;7.840;2023-12-28T04:13:36;13.20;95.90
1225;DHT22;602;48.000;7.840;2023-12-28T04:16:05;13.30;95.70
1225;DHT22;602;48.000;7.840;2023-12-28T04:18:32;13.20;95.70
1225;DHT22;602;48.000;7.840;2023-12-28T04:20:59;13.30;95.70
1225;DHT22;602;48.000;7.840;2023-12-28T04:23:27;13.40;95.70
1225;DHT22;602;48.000;7.840;2023-12-28T04:25:54;13.40;95.70
1225;DHT22;602;48.000;7.840;2023-12-28T04:28:21;13.40;95.50
1225;DHT22;602;48.000;7.840;2023-12-28T04:30:48;13.30;95.40
1225;DHT22;602;48.000;7.840;2023-12-28T04:33:17;13.50;95.70
1225;DHT22;602;48.000;7.840;2023-12-28T04:35:45;13.50;95.60
1225;DHT22;602;48.000;7.840;2023-12-28T04:38:12;13.50;95.80
1225;DHT22;602;48.000;7.840;2023-12-28T04:40:42;13.50;95.30
1225;DHT22;602;48.000;7.840;2023-12-28T04:43:09;13.50;95.60
1225;DHT22;602;48.000;7.840;2023-12-28T04:45:36;13.50;95.10
1225;DHT22;602;48.000;7.840;2023-12-28T04:48:04;13.60;94.90
1225;DHT22;602;48.000;7.840;2023-12-28T04:50:31;13.60;94.80
1225;DHT22;602;48.000;7.840;2023-12-28T04:52:58;13.60;94.90
1225;DHT22;602;48.000;7.840;2023-12-28T04:55:25;13.70;94.70
1225;DHT22;602;48.000;7.840;2023-12-28T04:57:53;13.70;94.50
1225;DHT22;602;48.000;7.840;2023-12-28T05:00:20;13.70;94.40
1225;DHT22;602;48.000;7.840;2023-12-28T05:02:47;13.80;94.30
1225;DHT22;602;48.000;7.840;2023-12-28T05:05:14;13.80;94.10
1225;DHT22;602;48.000;7.840;2023-12-28T05:07:41;13.90;94.30
1225;DHT22;602;48.000;7.840;2023-12-28T05:10:08;13.90;94.90
1225;DHT22;602;48.000;7.840;2023-12-28T05:12:35;13.80;95.40
1225;DHT22;602;48.000;7.840;2023-12-28T05:15:05;13.70;96.10
1225;DHT22;602;48.000;7.840;2023-12-28T05:17:32;13.70;96.40
1225;DHT22;602;48.000;7.840;2023-12-28T05:19:59;13.70;96.80
1225;DHT22;602;48.000;7.840;2023-12-28T05:22:26;13.70;96.30
1225;DHT22;602;48.000;7.840;2023-12-28T05:24:53;13.50;96.30
1225;DHT22;602;48.000;7.840;2023-12-28T05:27:20;13.50;96.40
1225;DHT22;602;48.000;7.840;2023-12-28T05:29:47;13.50;96.50
1225;DHT22;602;48.000;7.840;2023-12-28T05:32:15;13.50;96.70
1225;DHT22;602;48.000;7.840;2023-12-28T05:34:42;13.50;96.90
1225;DHT22;602;48.000;7.840;2023-12-28T05:37:09;13.50;97.00
1225;DHT22;602;48.000;7.840;2023-12-28T05:39:36;13.50;97.10
1225;DHT22;602;48.000;7.840;2023-12-28T05:42:03;13.50;97.20
1225;DHT22;602;48.000;7.840;2023-12-28T05:44:30;13.40;97.10
1225;DHT22;602;48.000;7.840;2023-12-28T05:46:57;13.30;97.30
1225;DHT22;602;48.000;7.840;2023-12-28T05:49:25;13.20;97.30
1225;DHT22;602;48.000;7.840;2023-12-28T05:51:54;13.10;97.30
1225;DHT22;602;48.000;7.840;2023-12-28T05:54:20;13.10;97.30
1225;DHT22;602;48.000;7.840;2023-12-28T05:56:47;13.10;97.20
1225;DHT22;602;48.000;7.840;2023-12-28T05:59:14;13.00;96.80
1225;DHT22;602;48.000;7.840;2023-12-28T06:01:42;13.00;96.70
1225;DHT22;602;48.000;7.840;2023-12-28T06:04:09;13.00;96.60
1225;DHT22;602;48.000;7.840;2023-12-28T06:06:37;13.00;96.60
1225;DHT22;602;48.000;7.840;2023-12-28T06:09:04;12.90;96.90
1225;DHT22;602;48.000;7.840;2023-12-28T06:11:31;12.90;96.60
1225;DHT22;602;48.000;7.840;2023-12-28T06:13:58;12.90;96.70
1225;DHT22;602;48.000;7.840;2023-12-28T06:16:25;12.90;96.60
1225;DHT22;602;48.000;7.840;2023-12-28T06:18:52;13.00;96.20
1225;DHT22;602;48.000;7.840;2023-12-28T06:21:19;13.00;95.80
1225;DHT22;602;48.000;7.840;2023-12-28T06:23:47;13.00;95.30
1225;DHT22;602;48.000;7.840;2023-12-28T06:26:14;13.10;95.40
1225;DHT22;602;48.000;7.840;2023-12-28T06:28:41;13.10;95.50
1225;DHT22;602;48.000;7.840;2023-12-28T06:31:08;13.10;95.60
1225;DHT22;602;48.000;7.840;2023-12-28T06:33:35;13.10;95.50
1225;DHT22;602;48.000;7.840;2023-12-28T06:36:05;13.20;95.50
1225;DHT22;602;48.000;7.840;2023-12-28T06:38:32;13.20;95.30
1225;DHT22;602;48.000;7.840;2023-12-28T06:41:01;13.20;95.10
1225;DHT22;602;48.000;7.840;2023-12-28T06:43:28;13.20;95.20
1225;DHT22;602;48.000;7.840;2023-12-28T06:45:54;13.10;95.20
1225;DHT22;602;48.000;7.840;2023-12-28T06:48:21;13.20;95.30
1225;DHT22;602;48.000;7.840;2023-12-28T06:50:49;13.20;95.30
1225;DHT22;602;48.000;7.840;2023-12-28T06:53:16;13.20;95.30
1225;DHT22;602;48.000;7.840;2023-12-28T06:55:43;13.20;95.20
1225;DHT22;602;48.000;7.840;2023-12-28T06:58:11;13.20;94.90
1225;DHT22;602;48.000;7.840;2023-12-28T07:00:38;13.30;95.20
1225;DHT22;602;48.000;7.840;2023-12-28T07:03:06;13.40;95.00
1225;DHT22;602;48.000;7.840;2023-12-28T07:05:34;13.40;95.10
1225;DHT22;602;48.000;7.840;2023-12-28T07:08:01;13.50;95.20
1225;DHT22;602;48.000;7.840;2023-12-28T07:10:28;13.50;95.10
1225;DHT22;602;48.000;7.840;2023-12-28T07:12:54;13.60;95.10
1225;DHT22;602;48.000;7.840;2023-12-28T07:15:23;13.60;95.10
1225;DHT22;602;48.000;7.840;2023-12-28T07:17:50;13.60;95.20
1225;DHT22;602;48.000;7.840;2023-12-28T07:20:17;13.60;95.30
1225;DHT22;602;48.000;7.840;2023-12-28T07:22:44;13.60;95.40
1225;DHT22;602;48.000;7.840;2023-12-28T07:25:11;13.50;95.80
1225;DHT22;602;48.000;7.840;2023-12-28T07:27:38;13.30;96.00
1225;DHT22;602;48.000;7.840;2023-12-28T07:30:06;13.30;96.20
1225;DHT22;602;48.000;7.840;2023-12-28T07:32:35;13.30;95.90
1225;DHT22;602;48.000;7.840;2023-12-28T07:35:02;13.20;96.00
1225;DHT22;602;48.000;7.840;2023-12-28T07:37:29;13.10;96.10
1225;DHT22;602;48.000;7.840;2023-12-28T07:39:56;13.10;96.80
1225;DHT22;602;48.000;7.840;2023-12-28T07:42:23;13.10;97.40
1225;DHT22;602;48.000;7.840;2023-12-28T07:44:50;13.00;97.60
1225;DHT22;602;48.000;7.840;2023-12-28T07:47:17;13.00;98.10
1225;DHT22;602;48.000;7.840;2023-12-28T07:49:45;13.10;99.20
1225;DHT22;602;48.000;7.840;2023-12-28T07:52:12;13.10;99.90
1225;DHT22;602;48.000;7.840;2023-12-28T07:54:39;13.10;99.90
1225;DHT22;602;48.000;7.840;2023-12-28T07:57:06;13.20;99.90
1225;DHT22;602;48.000;7.840;2023-12-28T07:59:33;13.10;99.90
1225;DHT22;602;48.000;7.840;2023-12-28T08:01:59;13.10;99.90
1225;DHT22;602;48.000;7.840;2023-12-28T08:04:26;13.10;99.90
1225;DHT22;602;48.000;7.840;2023-12-28T08:06:54;13.20;99.90
1225;DHT22;602;48.000;7.840;2023-12-28T08:09:21;13.20;99.90
1225;DHT22;602;48.000;7.840;2023-12-28T08:11:48;13.20;99.90
1225;DHT22;602;48.000;7.840;2023-12-28T08:14:15;13.10;99.90
1225;DHT22;602;48.000;7.840;2023-12-28T08:16:42;13.20;99.90
1225;DHT22;602;48.000;7.840;2023-12-28T08:19:09;13.30;99.90
1225;DHT22;602;48.000;7.840;2023-12-28T08:21:36;13.20;99.90
1225;DHT22;602;48.000;7.840;2023-12-28T08:24:05;13.10;99.90
1225;DHT22;602;48.000;7.840;2023-12-28T08:26:32;13.10;99.90
1225;DHT22;602;48.000;7.840;2023-12-28T08:28:59;13.00;99.90
1225;DHT22;602;48.000;7.840;2023-12-28T08:31:26;13.10;99.90
1225;DHT22;602;48.000;7.840;2023-12-28T08:33:52;13.20;99.90
1225;DHT22;602;48.000;7.840;2023-12-28T08:36:19;13.20;99.90
1225;DHT22;602;48.000;7.840;2023-12-28T08:38:46;13.20;99.90
1225;DHT22;602;48.000;7.840;2023-12-28T08:41:21;13.20;99.90
1225;DHT22;602;48.000;7.840;2023-12-28T08:43:49;13.30;99.90
1225;DHT22;602;48.000;7.840;2023-12-28T08:46:16;13.30;99.90
1225;DHT22;602;48.000;7.840;2023-12-28T08:48:43;13.10;99.90
1225;DHT22;602;48.000;7.840;2023-12-28T08:51:10;13.20;99.90
1225;DHT22;602;48.000;7.840;2023-12-28T08:53:37;13.10;99.90
1225;DHT22;602;48.000;7.840;2023-12-28T08:56:13;13.10;99.90
1225;DHT22;602;48.000;7.840;2023-12-28T08:58:41;13.00;99.90
1225;DHT22;602;48.000;7.840;2023-12-28T09:01:08;13.10;99.90
1225;DHT22;602;48.000;7.840;2023-12-28T09:03:35;13.10;99.90
1225;DHT22;602;48.000;7.840;2023-12-28T09:06:02;13.10;99.90
1225;DHT22;602;48.000;7.840;2023-12-28T09:08:29;13.20;99.90
1225;DHT22;602;48.000;7.840;2023-12-28T09:10:56;13.20;99.90
1225;DHT22;602;48.000;7.840;2023-12-28T09:13:23;13.20;99.90
1225;DHT22;602;48.000;7.840;2023-12-28T09:15:51;13.30;99.90
1225;DHT22;602;48.000;7.840;2023-12-28T09:18:18;13.30;99.90
1225;DHT22;602;48.000;7.840;2023-12-28T09:20:45;13.20;99.90
1225;DHT22;602;48.000;7.840;2023-12-28T09:23:12;13.30;99.90
1225;DHT22;602;48.000;7.840;2023-12-28T09:25:40;13.30;99.90
1225;DHT22;602;48.000;7.840;2023-12-28T09:28:07;13.40;99.90
1225;DHT22;602;48.000;7.840;2023-12-28T09:30:34;13.40;99.90
1225;DHT22;602;48.000;7.840;2023-12-28T09:33:02;13.40;99.90
1225;DHT22;602;48.000;7.840;2023-12-28T09:35:29;13.40;99.90
1225;DHT22;602;48.000;7.840;2023-12-28T09:37:56;13.40;99.90
1225;DHT22;602;48.000;7.840;2023-12-28T09:40:24;13.40;99.90
1225;DHT22;602;48.000;7.840;2023-12-28T09:42:57;13.40;99.90
1225;DHT22;602;48.000;7.840;2023-12-28T09:45:26;13.50;99.90
1225;DHT22;602;48.000;7.840;2023-12-28T09:47:55;13.50;99.90
1225;DHT22;602;48.000;7.840;2023-12-28T09:50:23;13.50;99.90
1225;DHT22;602;48.000;7.840;2023-12-28T09:52:52;13.40;99.90
1225;DHT22;602;48.000;7.840;2023-12-28T09:55:19;13.40;99.90
1225;DHT22;602;48.000;7.840;2023-12-28T09:57:46;13.40;99.90
1225;DHT22;602;48.000;7.840;2023-12-28T10:00:14;13.40;99.90
1225;DHT22;602;48.000;7.840;2023-12-28T10:02:44;13.40;99.90
1225;DHT22;602;48.000;7.840;2023-12-28T10:05:12;13.40;99.90
1225;DHT22;602;48.000;7.840;2023-12-28T10:07:42;13.40;99.90
1225;DHT22;602;48.000;7.840;2023-12-28T10:10:09;13.40;99.90
1225;DHT22;602;48.000;7.840;2023-12-28T10:12:37;13.50;99.90
1225;DHT22;602;48.000;7.840;2023-12-28T10:15:05;13.40;99.90
1225;DHT22;602;48.000;7.840;2023-12-28T10:17:33;13.30;99.90
1225;DHT22;602;48.000;7.840;2023-12-28T10:20:01;13.40;99.90
1225;DHT22;602;48.000;7.840;2023-12-28T10:22:30;13.40;99.90
1225;DHT22;602;48.000;7.840;2023-12-28T10:24:59;13.50;99.90
1225;DHT22;602;48.000;7.840;2023-12-28T10:27:26;13.50;99.90
1225;DHT22;602;48.000;7.840;2023-12-28T10:29:54;13.40;99.90
1225;DHT22;602;48.000;7.840;2023-12-28T10:32:22;13.40;99.90
1225;DHT22;602;48.000;7.840;2023-12-28T10:34:51;13.40;99.90
1225;DHT22;602;48.000;7.840;2023-12-28T10:37:20;13.40;99.90
1225;DHT22;602;48.000;7.840;2023-12-28T10:39:48;13.40;99.90
1225;DHT22;602;48.000;7.840;2023-12-28T10:42:31;13.40;99.90
1225;DHT22;602;48.000;7.840;2023-12-28T10:45:02;13.30;99.90
1225;DHT22;602;48.000;7.840;2023-12-28T10:47:32;13.20;99.90
1225;DHT22;602;48.000;7.840;2023-12-28T10:50:03;13.30;99.90
1225;DHT22;602;48.000;7.840;2023-12-28T10:52:31;13.30;99.90
1225;DHT22;602;48.000;7.840;2023-12-28T10:55:17;13.40;99.90
1225;DHT22;602;48.000;7.840;2023-12-28T10:57:54;13.30;99.90
1225;DHT22;602;48.000;7.840;2023-12-28T11:00:24;13.30;99.90
1225;DHT22;602;48.000;7.840;2023-12-28T11:02:53;13.40;99.90
1225;DHT22;602;48.000;7.840;2023-12-28T11:05:22;13.40;99.90
1225;DHT22;602;48.000;7.840;2023-12-28T11:07:50;13.40;99.90
1225;DHT22;602;48.000;7.840;2023-12-28T11:10:20;13.50;99.90
1225;DHT22;602;48.000;7.840;2023-12-28T11:12:51;13.50;99.90
1225;DHT22;602;48.000;7.840;2023-12-28T11:15:19;13.60;99.90
1225;DHT22;602;48.000;7.840;2023-12-28T11:17:46;13.60;99.90
1225;DHT22;602;48.000;7.840;2023-12-28T11:20:14;13.60;99.90
1225;DHT22;602;48.000;7.840;2023-12-28T11:22:42;13.50;99.90
1225;DHT22;602;48.000;7.840;2023-12-28T11:25:15;13.50;99.90
1225;DHT22;602;48.000;7.840;2023-12-28T11:27:44;13.50;99.90
1225;DHT22;602;48.000;7.840;2023-12-28T11:30:13;13.50;99.90
1225;DHT22;602;48.000;7.840;2023-12-28T11:32:41;13.60;99.90
1225;DHT22;602;48.000;7.840;2023-12-28T11:35:11;13.60;99.90
1225;DHT22;602;48.000;7.840;2023-12-28T11:37:41;13.70;99.90
1225;DHT22;602;48.000;7.840;2023-12-28T11:40:10;13.70;99.90
1225;DHT22;602;48.000;7.840;2023-12-28T11:42:47;13.70;99.90
1225;DHT22;602;48.000;7.840;2023-12-28T11:45:16;13.70;99.90
1225;DHT22;602;48.000;7.840;2023-12-28T11:47:43;13.60;99.90
1225;DHT22;602;48.000;7.840;2023-12-28T11:50:11;13.70;99.90
1225;DHT22;602;48.000;7.840;2023-12-28T11:52:39;13.60;99.90
1225;DHT22;602;48.000;7.840;2023-12-28T11:55:06;13.50;99.90
1225;DHT22;602;48.000;7.840;2023-12-28T11:57:33;13.50;99.90
1225;DHT22;602;48.000;7.840;2023-12-28T12:00:01;13.50;99.90
1225;DHT22;602;48.000;7.840;2023-12-28T12:02:31;13.40;99.90
1225;DHT22;602;48.000;7.840;2023-12-28T12:04:58;13.30;99.90
1225;DHT22;602;48.000;7.840;2023-12-28T12:07:27;13.30;99.90
1225;DHT22;602;48.000;7.840;2023-12-28T12:09:57;13.20;99.90
1225;DHT22;602;48.000;7.840;2023-12-28T12:12:25;13.10;99.90
1225;DHT22;602;48.000;7.840;2023-12-28T12:14:52;13.20;99.90
1225;DHT22;602;48.000;7.840;2023-12-28T12:17:19;13.20;99.90
1225;DHT22;602;48.000;7.840;2023-12-28T12:19:48;13.20;99.90
1225;DHT22;602;48.000;7.840;2023-12-28T12:22:16;13.40;99.90
1225;DHT22;602;48.000;7.840;2023-12-28T12:24:45;13.50;99.90
1225;DHT22;602;48.000;7.840;2023-12-28T12:27:13;13.40;99.90
1225;DHT22;602;48.000;7.840;2023-12-28T12:29:40;13.40;99.90
1225;DHT22;602;48.000;7.840;2023-12-28T12:32:07;13.10;99.90
1225;DHT22;602;48.000;7.840;2023-12-28T12:34:35;13.00;99.90
1225;DHT22;602;48.000;7.840;2023-12-28T12:37:03;13.00;99.90
1225;DHT22;602;48.000;7.840;2023-12-28T12:39:30;12.80;99.90
1225;DHT22;602;48.000;7.840;2023-12-28T12:41:58;12.80;99.90
1225;DHT22;602;48.000;7.840;2023-12-28T12:44:25;12.70;99.90
1225;DHT22;602;48.000;7.840;2023-12-28T12:46:59;12.60;99.90
1225;DHT22;602;48.000;7.840;2023-12-28T12:49:26;12.60;99.90
1225;DHT22;602;48.000;7.840;2023-12-28T12:51:53;12.50;99.90
1225;DHT22;602;48.000;7.840;2023-12-28T12:54:22;12.50;99.90
1225;DHT22;602;48.000;7.840;2023-12-28T12:56:50;12.50;99.90
1225;DHT22;602;48.000;7.840;2023-12-28T12:59:17;12.40;99.90
1225;DHT22;602;48.000;7.840;2023-12-28T13:01:44;12.30;99.90
1225;DHT22;602;48.000;7.840;2023-12-28T13:04:14;12.20;99.90
1225;DHT22;602;48.000;7.840;2023-12-28T13:06:42;12.10;99.90
1225;DHT22;602;48.000;7.840;2023-12-28T13:09:09;12.00;99.90
1225;DHT22;602;48.000;7.840;2023-12-28T13:11:39;12.00;99.90
1225;DHT22;602;48.000;7.840;2023-12-28T13:14:06;11.90;99.90
1225;DHT22;602;48.000;7.840;2023-12-28T13:16:32;11.90;99.90
1225;DHT22;602;48.000;7.840;2023-12-28T13:18:59;11.90;99.90
1225;DHT22;602;48.000;7.840;2023-12-28T13:21:26;11.90;99.90
1225;DHT22;602;48.000;7.840;2023-12-28T13:23:53;11.90;99.90
1225;DHT22;602;48.000;7.840;2023-12-28T13:26:22;11.90;99.90
1225;DHT22;602;48.000;7.840;2023-12-28T13:28:50;11.80;99.90
1225;DHT22;602;48.000;7.840;2023-12-28T13:31:17;11.80;99.90
1225;DHT22;602;48.000;7.840;2023-12-28T13:33:44;11.90;99.90
1225;DHT22;602;48.000;7.840;2023-12-28T13:36:12;11.90;99.90
1225;DHT22;602;48.000;7.840;2023-12-28T13:38:38;11.90;99.90
1225;DHT22;602;48.000;7.840;2023-12-28T13:41:05;11.80;99.90
1225;DHT22;602;48.000;7.840;2023-12-28T13:43:32;11.80;99.90
1225;DHT22;602;48.000;7.840;2023-12-28T13:46:01;11.80;99.90
1225;DHT22;602;48.000;7.840;2023-12-28T13:48:29;11.80;99.90
1225;DHT22;602;48.000;7.840;2023-12-28T13:50:56;11.70;99.90
1225;DHT22;602;48.000;7.840;2023-12-28T13:53:23;11.70;99.90
1225;DHT22;602;48.000;7.840;2023-12-28T13:55:49;11.70;99.90
1225;DHT22;602;48.000;7.840;2023-12-28T13:58:16;11.70;99.90
1225;DHT22;602;48.000;7.840;2023-12-28T14:00:43;11.60;99.90
1225;DHT22;602;48.000;7.840;2023-12-28T14:03:11;11.60;99.90
1225;DHT22;602;48.000;7.840;2023-12-28T14:05:38;11.60;99.90
1225;DHT22;602;48.000;7.840;2023-12-28T14:08:05;11.60;99.90
1225;DHT22;602;48.000;7.840;2023-12-28T14:10:32;11.60;99.90
1225;DHT22;602;48.000;7.840;2023-12-28T14:12:59;11.50;99.90
1225;DHT22;602;48.000;7.840;2023-12-28T14:15:26;11.50;99.90
1225;DHT22;602;48.000;7.840;2023-12-28T14:17:53;11.60;99.90
1225;DHT22;602;48.000;7.840;2023-12-28T14:20:22;11.60;99.90
1225;DHT22;602;48.000;7.840;2023-12-28T14:22:49;11.50;99.90
1225;DHT22;602;48.000;7.840;2023-12-28T14:25:17;11.50;99.90
1225;DHT22;602;48.000;7.840;2023-12-28T14:27:44;11.60;99.90
1225;DHT22;602;48.000;7.840;2023-12-28T14:30:12;11.50;99.90
1225;DHT22;602;48.000;7.840;2023-12-28T14:32:40;11.50;99.90
1225;DHT22;602;48.000;7.840;2023-12-28T14:35:08;11.40;99.90
1225;DHT22;602;48.000;7.840;2023-12-28T14:37:37;11.50;99.90
1225;DHT22;602;48.000;7.840;2023-12-28T14:40:05;11.50;99.90
1225;DHT22;602;48.000;7.840;2023-12-28T14:42:32;11.60;99.90
1225;DHT22;602;48.000;7.840;2023-12-28T14:44:59;11.60;99.90
1225;DHT22;602;48.000;7.840;2023-12-28T14:47:27;11.60;99.90
1225;DHT22;602;48.000;7.840;2023-12-28T14:49:53;11.70;99.90
1225;DHT22;602;48.000;7.840;2023-12-28T14:52:22;11.60;99.90
1225;DHT22;602;48.000;7.840;2023-12-28T14:54:50;11.60;99.90
1225;DHT22;602;48.000;7.840;2023-12-28T14:57:19;11.60;99.90
1225;DHT22;602;48.000;7.840;2023-12-28T14:59:46;11.60;99.90
1225;DHT22;602;48.000;7.840;2023-12-28T15:02:13;11.60;99.90
1225;DHT22;602;48.000;7.840;2023-12-28T15:04:40;11.70;99.90
1225;DHT22;602;48.000;7.840;2023-12-28T15:07:07;11.70;99.90
1225;DHT22;602;48.000;7.840;2023-12-28T15:09:34;11.80;99.90
1225;DHT22;602;48.000;7.840;2023-12-28T15:12:03;11.80;99.90
1225;DHT22;602;48.000;7.840;2023-12-28T15:14:30;11.80;99.90
1225;DHT22;602;48.000;7.840;2023-12-28T15:16:57;11.90;99.90
1225;DHT22;602;48.000;7.840;2023-12-28T15:19:25;11.90;99.90
1225;DHT22;602;48.000;7.840;2023-12-28T15:21:52;12.00;99.90
1225;DHT22;602;48.000;7.840;2023-12-28T15:24:20;12.00;99.90
1225;DHT22;602;48.000;7.840;2023-12-28T15:26:47;12.00;99.90
1225;DHT22;602;48.000;7.840;2023-12-28T15:29:15;12.00;99.90
1225;DHT22;602;48.000;7.840;2023-12-28T15:31:42;12.10;99.90
1225;DHT22;602;48.000;7.840;2023-12-28T15:34:09;12.10;99.90
1225;DHT22;602;48.000;7.840;2023-12-28T15:36:36;12.20;99.90
1225;DHT22;602;48.000;7.840;2023-12-28T15:39:02;12.20;99.90
1225;DHT22;602;48.000;7.840;2023-12-28T15:41:30;12.30;99.90
1225;DHT22;602;48.000;7.840;2023-12-28T15:43:57;12.30;99.90
1225;DHT22;602;48.000;7.840;2023-12-28T15:46:25;12.30;99.90
1225;DHT22;602;48.000;7.840;2023-12-28T15:48:52;12.20;99.90
1225;DHT22;602;48.000;7.840;2023-12-28T15:51:19;12.30;99.90
1225;DHT22;602;48.000;7.840;2023-12-28T15:53:47;12.30;99.90
1225;DHT22;602;48.000;7.840;2023-12-28T15:56:14;12.30;99.90
1225;DHT22;602;48.000;7.840;2023-12-28T15:58:41;12.30;99.90
1225;DHT22;602;48.000;7.840;2023-12-28T16:01:09;12.20;99.90
1225;DHT22;602;48.000;7.840;2023-12-28T16:03:37;12.30;99.90
1225;DHT22;602;48.000;7.840;2023-12-28T16:06:04;12.30;99.90
1225;DHT22;602;48.000;7.840;2023-12-28T16:08:31;12.30;99.90
1225;DHT22;602;48.000;7.840;2023-12-28T16:10:58;12.20;99.90
1225;DHT22;602;48.000;7.840;2023-12-28T16:13:27;12.10;99.90
1225;DHT22;602;48.000;7.840;2023-12-28T16:15:54;12.20;99.90
1225;DHT22;602;48.000;7.840;2023-12-28T16:18:22;12.20;99.90
1225;DHT22;602;48.000;7.840;2023-12-28T16:20:50;12.20;99.90